createdAt,value
2022-12-01T00:00:20.435Z,-13.14
2022-12-01T00:02:47.757Z,-13.21
2022-12-01T00:05:16.802Z,-13.24
2022-12-01T00:07:44.084Z,-13.26
2022-12-01T00:10:27.135Z,-13.31
2022-12-01T00:12:55.725Z,-13.27
2022-12-01T00:15:25.929Z,-13.24
2022-12-01T00:17:53.499Z,-13.20
2022-12-01T00:20:22.209Z,-13.17
2022-12-01T00:22:50.260Z,-13.12
2022-12-01T00:25:19.502Z,-13.22
2022-12-01T00:27:48.995Z,-13.12
2022-12-01T00:30:17.357Z,-13.11
2022-12-01T00:32:44.966Z,-13.17
2022-12-01T00:35:13.577Z,-13.20
2022-12-01T00:37:42.353Z,-13.27
2022-12-01T00:40:11.671Z,-13.27
2022-12-01T00:42:39.731Z,-13.31
2022-12-01T00:45:08.430Z,-13.37
2022-12-01T00:47:35.933Z,-13.40
2022-12-01T00:50:03.311Z,-13.39
2022-12-01T00:52:30.798Z,-13.42
2022-12-01T00:54:59.418Z,-13.49
2022-12-01T00:57:26.660Z,-13.57
2022-12-01T00:59:53.891Z,-13.52
2022-12-01T01:02:21.194Z,-13.52
2022-12-01T01:04:48.511Z,-13.47
2022-12-01T01:07:16.232Z,-13.45
2022-12-01T01:09:43.447Z,-13.48
2022-12-01T01:12:12.346Z,-13.47
2022-12-01T01:14:39.840Z,-13.48
2022-12-01T01:17:07.391Z,-13.53
2022-12-01T01:19:34.871Z,-13.60
2022-12-01T01:22:02.139Z,-13.66
2022-12-01T01:24:29.653Z,-13.65
2022-12-01T01:26:56.959Z,-13.70
2022-12-01T01:29:25.767Z,-13.73
2022-12-01T01:31:53.598Z,-13.77
2022-12-01T01:34:20.889Z,-13.79
2022-12-01T01:36:48.271Z,-13.84
2022-12-01T01:39:15.916Z,-13.84
2022-12-01T01:41:43.442Z,-13.79
2022-12-01T01:44:50.291Z,-13.70
2022-12-01T01:47:21.164Z,-13.67
2022-12-01T01:49:49.497Z,-13.64
2022-12-01T01:52:18.674Z,-13.63
2022-12-01T01:54:50.844Z,-13.68
2022-12-01T01:57:24.111Z,-13.61
2022-12-01T01:59:57.303Z,-13.63
2022-12-01T02:02:25.753Z,-13.65
2022-12-01T02:05:00.849Z,-13.71
2022-12-01T02:07:28.512Z,-13.71
2022-12-01T02:09:56.475Z,-13.73
2022-12-01T02:12:42.065Z,-13.68
2022-12-01T02:15:38.189Z,-13.69
2022-12-01T02:18:22.415Z,-13.89
2022-12-01T02:21:25.065Z,-13.77
2022-12-01T02:24:42.395Z,-13.81
2022-12-01T02:27:24.091Z,-13.77
2022-12-01T02:30:08.301Z,-13.74
2022-12-01T02:32:48.085Z,-13.83
2022-12-01T02:35:20.922Z,-13.79
2022-12-01T02:37:54.987Z,-13.82
2022-12-01T02:40:27.668Z,-13.84
2022-12-01T02:43:03.439Z,-13.85
2022-12-01T02:45:37.353Z,-13.87
2022-12-01T02:48:08.834Z,-13.89
2022-12-01T02:50:38.226Z,-13.93
2022-12-01T02:53:08.486Z,-14.08
2022-12-01T02:55:36.108Z,-14.02
2022-12-01T02:58:12.515Z,-14.04
2022-12-01T03:00:43.524Z,-14.15
2022-12-01T03:03:32.970Z,-14.01
2022-12-01T03:06:11.083Z,-14.03
2022-12-01T03:08:49.133Z,-13.97
2022-12-01T03:11:32.653Z,-13.99
2022-12-01T03:14:11.347Z,-14.02
2022-12-01T03:16:48.342Z,-14.09
2022-12-01T03:19:27.319Z,-14.11
2022-12-01T03:22:02.332Z,-14.07
2022-12-01T03:24:33.150Z,-14.01
2022-12-01T03:27:02.930Z,-14.09
2022-12-01T03:29:33.765Z,-14.09
2022-12-01T03:32:06.394Z,-14.00
2022-12-01T03:34:41.396Z,-13.92
2022-12-01T03:37:15.097Z,-13.90
2022-12-01T03:39:44.368Z,-13.90
2022-12-01T03:42:18.330Z,-13.82
2022-12-01T03:44:49.747Z,-13.84
2022-12-01T03:47:20.933Z,-13.82
2022-12-01T03:49:52.368Z,-13.82
2022-12-01T03:52:29.233Z,-13.94
2022-12-01T03:55:08.161Z,-13.82
2022-12-01T03:57:44.395Z,-13.78
2022-12-01T04:00:14.146Z,-13.78
2022-12-01T04:02:42.412Z,-13.78
2022-12-01T04:05:11.632Z,-13.76
2022-12-01T04:07:39.698Z,-13.72
2022-12-01T04:10:08.374Z,-13.74
2022-12-01T04:12:35.852Z,-13.70
2022-12-01T04:15:05.382Z,-13.67
2022-12-01T04:17:32.783Z,-13.59
2022-12-01T04:20:00.357Z,-13.47
2022-12-01T04:22:29.070Z,-13.43
2022-12-01T04:24:56.361Z,-13.40
2022-12-01T04:27:23.791Z,-13.46
2022-12-01T04:29:51.541Z,-13.36
2022-12-01T04:32:18.989Z,-13.36
2022-12-01T04:34:46.231Z,-13.35
2022-12-01T04:37:13.683Z,-13.37
2022-12-01T04:39:42.439Z,-13.40
2022-12-01T04:42:10.651Z,-13.47
2022-12-01T04:44:38.107Z,-13.52
2022-12-01T04:47:06.666Z,-13.62
2022-12-01T04:49:35.327Z,-13.68
2022-12-01T04:52:02.525Z,-13.67
2022-12-01T04:54:30.024Z,-13.65
2022-12-01T04:56:58.633Z,-13.64
2022-12-01T04:59:25.992Z,-13.67
2022-12-01T05:01:53.264Z,-13.65
2022-12-01T05:04:20.717Z,-13.66
2022-12-01T05:06:48.078Z,-13.61
2022-12-01T05:09:17.717Z,-13.52
2022-12-01T05:11:45.508Z,-13.43
2022-12-01T05:14:14.200Z,-13.38
2022-12-01T05:16:41.566Z,-13.40
2022-12-01T05:19:27.686Z,-13.32
2022-12-01T05:21:54.907Z,-13.28
2022-12-01T05:24:22.579Z,-13.35
2022-12-01T05:26:49.770Z,-13.31
2022-12-01T05:29:18.614Z,-13.34
2022-12-01T05:31:46.763Z,-13.35
2022-12-01T05:34:14.124Z,-13.37
2022-12-01T05:36:42.091Z,-13.35
2022-12-01T05:39:09.543Z,-13.35
2022-12-01T05:41:37.015Z,-13.35
2022-12-01T05:44:04.424Z,-13.35
2022-12-01T05:46:33.181Z,-13.33
2022-12-01T05:49:00.533Z,-13.33
2022-12-01T05:51:27.806Z,-13.38
2022-12-01T05:53:55.214Z,-13.44
2022-12-01T05:56:22.507Z,-13.46
2022-12-01T05:58:49.870Z,-13.46
2022-12-01T06:01:17.371Z,-13.44
2022-12-01T06:03:46.070Z,-13.40
2022-12-01T06:06:13.483Z,-13.35
2022-12-01T06:08:40.851Z,-13.39
2022-12-01T06:11:08.144Z,-13.22
2022-12-01T06:13:35.395Z,-13.17
2022-12-01T06:16:04.810Z,-13.11
2022-12-01T06:18:33.761Z,-12.96
2022-12-01T06:21:02.864Z,-12.80
2022-12-01T06:23:30.771Z,-12.66
2022-12-01T06:25:58.464Z,-12.52
2022-12-01T06:28:25.819Z,-12.30
2022-12-01T06:30:56.523Z,-12.13
2022-12-01T06:33:26.765Z,-12.03
2022-12-01T06:35:58.254Z,-11.93
2022-12-01T06:38:27.078Z,-11.86
2022-12-01T06:40:54.309Z,-11.83
2022-12-01T06:43:21.703Z,-11.76
2022-12-01T06:45:49.053Z,-11.71
2022-12-01T06:48:16.364Z,-11.74
2022-12-01T06:50:43.650Z,-11.76
2022-12-01T06:53:11.475Z,-11.82
2022-12-01T06:55:40.225Z,-11.86
2022-12-01T06:58:07.649Z,-11.93
2022-12-01T07:00:35.073Z,-11.97
2022-12-01T07:03:03.288Z,-11.98
2022-12-01T07:05:30.566Z,-11.94
2022-12-01T07:07:59.699Z,-11.89
2022-12-01T07:10:28.108Z,-11.80
2022-12-01T07:12:57.528Z,-11.73
2022-12-01T07:15:24.977Z,-11.61
2022-12-01T07:17:52.437Z,-11.50
2022-12-01T07:20:20.131Z,-11.42
2022-12-01T07:22:47.680Z,-11.40
2022-12-01T07:25:15.275Z,-11.39
2022-12-01T07:27:42.643Z,-11.36
2022-12-01T07:30:12.213Z,-11.25
2022-12-01T07:32:40.434Z,-11.15
2022-12-01T07:35:10.237Z,-11.03
2022-12-01T07:37:37.676Z,-10.87
2022-12-01T07:40:06.391Z,-10.66
2022-12-01T07:42:33.631Z,-10.47
2022-12-01T07:45:01.060Z,-10.26
2022-12-01T07:47:29.678Z,-10.13
2022-12-01T07:49:56.841Z,-9.94
2022-12-01T07:52:24.029Z,-9.85
2022-12-01T07:54:51.603Z,-9.82
2022-12-01T07:57:20.512Z,-9.79
2022-12-01T07:59:47.998Z,-9.81
2022-12-01T08:02:15.680Z,-9.79
2022-12-01T08:04:44.788Z,-9.73
2022-12-01T08:07:12.310Z,-9.65
2022-12-01T08:09:39.802Z,-9.56
2022-12-01T08:12:07.579Z,-9.38
2022-12-01T08:14:34.870Z,-9.19
2022-12-01T08:17:02.221Z,-8.97
2022-12-01T08:19:29.488Z,-8.78
2022-12-01T08:21:58.231Z,-8.67
2022-12-01T08:24:25.838Z,-8.59
2022-12-01T08:26:53.288Z,-8.58
2022-12-01T08:29:20.688Z,-8.68
2022-12-01T08:31:48.305Z,-8.85
2022-12-01T08:34:15.929Z,-9.02
2022-12-01T08:36:43.320Z,-9.13
2022-12-01T08:39:12.065Z,-9.28
2022-12-01T08:41:39.412Z,-9.38
2022-12-01T08:44:06.653Z,-9.47
2022-12-01T08:46:35.698Z,-9.44
2022-12-01T08:49:04.046Z,-9.35
2022-12-01T08:51:31.849Z,-9.24
2022-12-01T08:53:59.982Z,-9.07
2022-12-01T08:56:31.347Z,-8.89
2022-12-01T08:58:59.205Z,-8.52
2022-12-01T09:01:26.957Z,-8.34
2022-12-01T09:04:05.870Z,-8.29
2022-12-01T09:06:39.577Z,-8.48
2022-12-01T09:09:07.512Z,-8.59
2022-12-01T09:11:36.208Z,-8.80
2022-12-01T09:14:03.988Z,-8.89
2022-12-01T09:16:31.476Z,-8.96
2022-12-01T09:18:58.748Z,-9.06
2022-12-01T09:21:28.006Z,-9.12
2022-12-01T09:23:55.281Z,-9.19
2022-12-01T09:26:23.693Z,-9.29
2022-12-01T09:28:54.862Z,-9.30
2022-12-01T09:31:25.453Z,-9.28
2022-12-01T09:33:57.032Z,-9.27
2022-12-01T09:36:24.882Z,-9.29
2022-12-01T09:38:52.646Z,-9.26
2022-12-01T09:41:23.877Z,-9.18
2022-12-01T09:43:58.686Z,-9.11
2022-12-01T09:46:29.538Z,-8.94
2022-12-01T09:48:58.135Z,-8.61
2022-12-01T09:51:28.435Z,-8.31
2022-12-01T09:53:59.006Z,-7.95
2022-12-01T09:56:29.168Z,-7.63
2022-12-01T09:59:01.541Z,-7.49
2022-12-01T10:01:33.658Z,-7.44
2022-12-01T10:04:06.372Z,-7.45
2022-12-01T10:06:38.796Z,-7.62
2022-12-01T10:09:21.053Z,-7.52
2022-12-01T10:11:53.087Z,-7.50
2022-12-01T10:14:22.314Z,-7.37
2022-12-01T10:17:01.225Z,-7.11
2022-12-01T10:19:35.129Z,-6.84
2022-12-01T10:22:19.960Z,-6.61
2022-12-01T10:24:55.315Z,-6.40
2022-12-01T10:27:36.861Z,-6.29
2022-12-01T10:30:09.991Z,-6.31
2022-12-01T10:32:48.799Z,-6.47
2022-12-01T10:35:17.617Z,-6.66
2022-12-01T10:37:46.138Z,-6.79
2022-12-01T10:40:15.697Z,-6.81
2022-12-01T10:42:44.509Z,-6.85
2022-12-01T10:45:19.513Z,-7.01
2022-12-01T10:48:09.529Z,-6.93
2022-12-01T10:50:37.478Z,-6.90
2022-12-01T10:53:05.209Z,-6.82
2022-12-01T10:55:35.704Z,-6.73
2022-12-01T10:58:13.756Z,-6.81
2022-12-01T11:01:02.437Z,-6.90
2022-12-01T11:03:32.667Z,-6.92
2022-12-01T11:06:01.976Z,-6.94
2022-12-01T11:08:38.858Z,-6.92
2022-12-01T11:11:06.897Z,-7.04
2022-12-01T11:13:36.944Z,-7.21
2022-12-01T11:16:07.368Z,-7.31
2022-12-01T11:18:36.885Z,-7.40
2022-12-01T11:21:10.709Z,-7.42
2022-12-01T11:23:46.701Z,-7.46
2022-12-01T11:26:17.918Z,-7.49
2022-12-01T11:28:53.783Z,-7.54
2022-12-01T11:31:35.047Z,-7.60
2022-12-01T11:34:02.768Z,-7.61
2022-12-01T11:36:38.509Z,-7.67
2022-12-01T11:39:05.872Z,-7.61
2022-12-01T11:41:36.590Z,-7.63
2022-12-01T11:44:22.362Z,-7.64
2022-12-01T11:47:21.632Z,-7.52
2022-12-01T11:49:48.332Z,-7.54
2022-12-01T11:52:24.203Z,-7.79
2022-12-01T11:54:57.690Z,-7.63
2022-12-01T11:57:34.172Z,-7.67
2022-12-01T12:00:02.897Z,-7.84
2022-12-01T12:02:42.980Z,-7.93
2022-12-01T12:05:33.568Z,-7.95
2022-12-01T12:08:09.199Z,-7.95
2022-12-01T12:10:46.645Z,-8.03
2022-12-01T12:13:42.343Z,-8.11
2022-12-01T12:16:16.753Z,-8.14
2022-12-01T12:19:03.251Z,-8.21
2022-12-01T12:21:34.332Z,-8.28
2022-12-01T12:24:16.722Z,-8.32
2022-12-01T12:26:51.959Z,-8.42
2022-12-01T12:29:43.580Z,-8.42
2022-12-01T12:32:27.481Z,-8.41
2022-12-01T12:35:04.608Z,-8.36
2022-12-01T12:37:42.293Z,-8.31
2022-12-01T12:40:29.820Z,-8.31
2022-12-01T12:43:13.180Z,-8.37
2022-12-01T12:45:51.658Z,-8.41
2022-12-01T12:48:57.338Z,-8.44
2022-12-01T12:51:35.391Z,-8.42
2022-12-01T12:54:15.580Z,-8.51
2022-12-01T12:56:47.659Z,-8.65
2022-12-01T12:59:22.034Z,-8.67
2022-12-01T13:01:57.662Z,-8.57
2022-12-01T13:04:32.397Z,-8.60
2022-12-01T13:07:05.540Z,-8.57
2022-12-01T13:09:38.160Z,-8.64
2022-12-01T13:12:09.989Z,-8.74
2022-12-01T13:14:41.099Z,-8.79
2022-12-01T13:17:16.387Z,-8.81
2022-12-01T13:19:46.159Z,-8.86
2022-12-01T13:22:17.098Z,-8.87
2022-12-01T13:24:44.627Z,-8.91
2022-12-01T13:27:19.538Z,-8.94
2022-12-01T13:29:49.565Z,-8.92
2022-12-01T13:32:31.852Z,-8.97
2022-12-01T13:35:00.820Z,-8.99
2022-12-01T13:37:32.201Z,-9.04
2022-12-01T13:40:10.022Z,-9.10
2022-12-01T13:42:41.081Z,-9.23
2022-12-01T13:45:16.189Z,-9.23
2022-12-01T13:47:51.632Z,-9.24
2022-12-01T13:50:54.655Z,-9.35
2022-12-01T13:53:28.972Z,-9.22
2022-12-01T13:55:59.486Z,-9.26
2022-12-01T13:58:48.929Z,-9.32
2022-12-01T14:01:49.354Z,-9.31
2022-12-01T14:04:37.715Z,-9.29
2022-12-01T14:07:30.977Z,-9.40
2022-12-01T14:10:22.832Z,-9.42
2022-12-01T14:12:52.115Z,-9.53
2022-12-01T14:15:33.337Z,-9.39
2022-12-01T14:18:06.339Z,-9.46
2022-12-01T14:20:37.945Z,-9.54
2022-12-01T14:23:16.226Z,-9.50
2022-12-01T14:25:59.198Z,-9.60
2022-12-01T14:28:59.201Z,-9.48
2022-12-01T14:32:05.077Z,-9.56
2022-12-01T14:34:34.868Z,-9.61
2022-12-01T14:37:11.523Z,-9.77
2022-12-01T14:39:42.405Z,-9.77
2022-12-01T14:42:39.972Z,-9.86
2022-12-01T14:45:13.578Z,-9.83
2022-12-01T14:47:42.465Z,-9.78
2022-12-01T14:50:15.701Z,-9.80
2022-12-01T14:52:47.234Z,-9.82
2022-12-01T14:55:18.346Z,-9.98
2022-12-01T14:57:50.023Z,-9.90
2022-12-01T15:00:20.307Z,-9.89
2022-12-01T15:02:55.139Z,-9.93
2022-12-01T15:05:25.243Z,-10.04
2022-12-01T15:07:58.845Z,-9.93
2022-12-01T15:10:35.562Z,-9.92
2022-12-01T15:13:20.952Z,-9.89
2022-12-01T15:15:51.149Z,-9.84
2022-12-01T15:18:23.016Z,-9.84
2022-12-01T15:20:56.518Z,-9.89
2022-12-01T15:23:23.703Z,-9.93
2022-12-01T15:25:50.641Z,-9.97
2022-12-01T15:28:19.992Z,-10.00
2022-12-01T15:30:49.717Z,-10.06
2022-12-01T15:33:26.724Z,-10.07
2022-12-01T15:35:55.834Z,-10.10
2022-12-01T15:38:27.346Z,-10.09
2022-12-01T15:43:53.711Z,-10.15
2022-12-01T15:46:27.732Z,-10.13
2022-12-01T15:49:07.338Z,-10.18
2022-12-01T15:51:35.202Z,-10.19
2022-12-01T15:54:03.645Z,-10.22
2022-12-01T15:56:33.715Z,-10.19
2022-12-01T15:59:09.527Z,-10.20
2022-12-01T16:01:37.832Z,-10.21
2022-12-01T16:04:14.497Z,-10.20
2022-12-01T16:06:42.437Z,-10.18
2022-12-01T16:09:21.833Z,-10.34
2022-12-01T16:12:07.440Z,-10.36
2022-12-01T16:14:36.745Z,-10.25
2022-12-01T16:17:08.958Z,-10.36
2022-12-01T16:19:36.466Z,-10.25
2022-12-01T16:22:15.999Z,-10.36
2022-12-01T16:24:47.313Z,-10.30
2022-12-01T16:27:21.245Z,-10.32
2022-12-01T16:29:53.056Z,-10.32
2022-12-01T16:32:23.919Z,-10.34
2022-12-01T16:34:53.336Z,-10.49
2022-12-01T16:37:22.377Z,-10.44
2022-12-01T16:39:50.141Z,-10.50
2022-12-01T16:42:20.717Z,-10.48
2022-12-01T16:44:49.015Z,-10.50
2022-12-01T16:47:20.426Z,-10.53
2022-12-01T16:49:48.183Z,-10.55
2022-12-01T16:52:43.236Z,-10.56
2022-12-01T16:55:03.822Z,-10.65
2022-12-01T16:57:31.083Z,-10.68
2022-12-01T16:59:58.418Z,-10.66
2022-12-01T17:02:27.249Z,-10.61
2022-12-01T17:04:54.568Z,-10.62
2022-12-01T17:07:21.929Z,-10.71
2022-12-01T17:09:49.247Z,-10.66
2022-12-01T17:12:16.600Z,-10.71
2022-12-01T17:14:44.011Z,-10.81
2022-12-01T17:17:11.364Z,-10.72
2022-12-01T17:19:39.980Z,-10.75
2022-12-01T17:22:07.344Z,-10.77
2022-12-01T17:24:34.597Z,-10.77
2022-12-01T17:27:01.820Z,-10.78
2022-12-01T17:29:29.173Z,-10.76
2022-12-01T17:31:56.581Z,-10.79
2022-12-01T17:34:23.869Z,-10.81
2022-12-01T17:36:55.011Z,-10.81
2022-12-01T17:39:22.603Z,-10.82
2022-12-01T17:41:50.129Z,-10.84
2022-12-01T17:44:17.445Z,-10.84
2022-12-01T17:46:44.739Z,-10.81
2022-12-01T17:49:14.794Z,-10.85
2022-12-01T17:51:42.244Z,-10.85
2022-12-01T17:54:11.002Z,-10.88
2022-12-01T17:56:38.204Z,-10.95
2022-12-01T17:59:05.408Z,-10.94
2022-12-01T18:01:32.902Z,-10.91
2022-12-01T18:04:00.413Z,-10.89
2022-12-01T18:06:31.133Z,-10.96
2022-12-01T18:08:59.793Z,-10.92
2022-12-01T18:11:28.640Z,-10.90
2022-12-01T18:13:56.610Z,-10.93
2022-12-01T18:16:26.188Z,-11.02
2022-12-01T18:18:54.599Z,-11.00
2022-12-01T18:21:23.688Z,-11.02
2022-12-01T18:23:52.214Z,-11.04
2022-12-01T18:26:21.964Z,-11.06
2022-12-01T18:28:54.981Z,-11.01
2022-12-01T18:31:22.382Z,-11.00
2022-12-01T18:33:49.980Z,-11.03
2022-12-01T18:36:18.965Z,-11.09
2022-12-01T18:38:47.484Z,-11.02
2022-12-01T18:41:15.440Z,-11.07
2022-12-01T18:43:42.756Z,-11.04
2022-12-01T18:46:13.108Z,-11.08
2022-12-01T18:48:44.788Z,-11.02
2022-12-01T18:51:12.968Z,-11.06
2022-12-01T18:53:41.245Z,-11.03
2022-12-01T18:56:12.033Z,-11.13
2022-12-01T18:58:39.918Z,-11.09
2022-12-01T19:01:21.155Z,-11.08
2022-12-01T19:03:52.159Z,-11.06
2022-12-01T19:06:19.885Z,-11.01
2022-12-01T19:08:47.157Z,-10.97
2022-12-01T19:11:15.117Z,-10.94
2022-12-01T19:13:42.453Z,-10.90
2022-12-01T19:16:16.062Z,-10.91
2022-12-01T19:18:45.549Z,-10.89
2022-12-01T19:21:15.068Z,-10.88
2022-12-01T19:23:42.781Z,-10.99
2022-12-01T19:26:12.429Z,-11.03
2022-12-01T19:28:42.288Z,-10.97
2022-12-01T19:31:11.353Z,-11.00
2022-12-01T19:33:38.990Z,-10.96
2022-12-01T19:36:10.128Z,-11.06
2022-12-01T19:38:37.780Z,-11.03
2022-12-01T19:41:06.877Z,-11.05
2022-12-01T19:43:34.600Z,-11.06
2022-12-01T19:46:05.227Z,-11.05
2022-12-01T19:48:32.722Z,-11.10
2022-12-01T19:51:00.119Z,-11.10
2022-12-01T19:53:33.247Z,-11.11
2022-12-01T19:56:02.021Z,-11.10
2022-12-01T19:58:32.030Z,-11.20
2022-12-01T20:01:03.139Z,-11.13
2022-12-01T20:03:30.587Z,-11.20
2022-12-01T20:06:01.990Z,-11.19
2022-12-01T20:08:35.031Z,-11.20
2022-12-01T20:11:04.440Z,-11.26
2022-12-01T20:13:32.242Z,-11.23
2022-12-01T20:16:04.549Z,-11.28
2022-12-01T20:18:32.576Z,-11.29
2022-12-01T20:21:04.656Z,-11.32
2022-12-01T20:23:33.443Z,-11.32
2022-12-01T20:26:01.581Z,-11.31
2022-12-01T20:28:29.243Z,-11.30
2022-12-01T20:30:57.155Z,-11.34
2022-12-01T20:33:24.972Z,-11.27
2022-12-01T20:35:52.303Z,-11.26
2022-12-01T20:38:25.775Z,-11.27
2022-12-01T20:40:56.277Z,-11.23
2022-12-01T20:43:23.535Z,-11.22
2022-12-01T20:45:50.961Z,-11.23
2022-12-01T20:48:18.760Z,-11.29
2022-12-01T20:50:46.101Z,-11.34
2022-12-01T20:53:13.438Z,-11.39
2022-12-01T20:55:41.146Z,-11.39
2022-12-01T20:58:10.431Z,-11.40
2022-12-01T21:00:39.605Z,-11.46
2022-12-01T21:03:06.886Z,-11.41
2022-12-01T21:05:34.301Z,-11.39
2022-12-01T21:08:02.089Z,-11.44
2022-12-01T21:10:29.481Z,-11.37
2022-12-01T21:13:18.583Z,-11.34
2022-12-01T21:15:56.282Z,-11.38
2022-12-01T21:18:31.286Z,-11.34
2022-12-01T21:21:04.329Z,-11.38
2022-12-01T21:23:31.588Z,-11.35
2022-12-01T21:25:58.963Z,-11.40
2022-12-01T21:28:27.284Z,-11.39
2022-12-01T21:31:08.051Z,-11.44
2022-12-01T21:33:37.111Z,-11.40
2022-12-01T21:36:14.829Z,-11.43
2022-12-01T21:38:42.677Z,-11.54
2022-12-01T21:41:16.264Z,-11.57
2022-12-01T21:43:43.485Z,-11.57
2022-12-01T21:46:15.340Z,-11.66
2022-12-01T21:48:43.216Z,-11.67
2022-12-01T21:51:16.602Z,-11.75
2022-12-01T21:53:44.047Z,-11.75
2022-12-01T21:56:20.261Z,-11.83
2022-12-01T21:58:48.217Z,-11.90
2022-12-01T22:01:21.856Z,-11.94
2022-12-01T22:03:50.049Z,-11.90
2022-12-01T22:06:30.893Z,-12.01
2022-12-01T22:09:01.157Z,-12.04
2022-12-01T22:11:29.838Z,-11.94
2022-12-01T22:14:05.141Z,-11.92
2022-12-01T22:16:35.761Z,-11.94
2022-12-01T22:19:20.959Z,-11.94
2022-12-01T22:21:50.312Z,-11.91
2022-12-01T22:24:25.870Z,-11.89
2022-12-01T22:27:12.077Z,-11.92
2022-12-01T22:29:42.309Z,-11.98
2022-12-01T22:32:33.079Z,-11.87
2022-12-01T22:35:18.785Z,-11.93
2022-12-01T22:37:48.994Z,-11.94
2022-12-01T22:40:37.971Z,-11.98
2022-12-01T22:43:22.516Z,-11.99
2022-12-01T22:45:53.035Z,-12.00
2022-12-01T22:48:31.822Z,-11.97
2022-12-01T22:51:09.242Z,-12.11
2022-12-01T22:53:36.459Z,-12.00
2022-12-01T22:56:24.553Z,-12.14
2022-12-01T22:58:52.357Z,-12.05
2022-12-01T23:01:25.422Z,-12.05
2022-12-01T23:04:08.056Z,-12.08
2022-12-01T23:07:00.188Z,-12.02
2022-12-01T23:09:32.628Z,-12.04
2022-12-01T23:12:05.040Z,-12.04
2022-12-01T23:14:34.106Z,-12.06
2022-12-01T23:17:07.451Z,-12.02
2022-12-01T23:19:36.183Z,-12.03
2022-12-01T23:22:03.483Z,-12.04
2022-12-01T23:24:33.851Z,-12.02
2022-12-01T23:27:02.141Z,-12.05
2022-12-01T23:29:30.531Z,-12.03
2022-12-01T23:31:58.024Z,-12.02
2022-12-01T23:34:25.326Z,-12.00
2022-12-01T23:36:54.290Z,-12.00
2022-12-01T23:39:30.300Z,-12.03
2022-12-01T23:41:57.847Z,-12.03
2022-12-01T23:44:39.726Z,-12.06
2022-12-01T23:47:15.081Z,-12.06
2022-12-01T23:49:42.601Z,-12.04
2022-12-01T23:52:16.392Z,-12.00
2022-12-01T23:54:43.613Z,-11.97
2022-12-01T23:57:16.808Z,-11.99
2022-12-01T23:59:45.021Z,-11.94
